sensor_id;sensor_type;location;lat;lon;timestamp;pressure;altitude;pressure_sealevel;temperature;humidity
69245;BME280;56357;52.304;4.870;2024-03-23T00:53:57;101299.47;;;18.29;56.11
69245;BME280;56357;52.304;4.870;2024-03-23T00:56:24;101294.97;;;18.23;56.09
69245;BME280;56357;52.304;4.870;2024-03-23T00:58:52;101285.97;;;18.21;56.17
69245;BME280;56357;52.304;4.870;2024-03-23T01:01:20;101288.53;;;18.28;56.17
69245;BME280;56357;52.304;4.870;2024-03-23T01:03:48;101271.72;;;18.23;56.24
69245;BME280;56357;52.304;4.870;2024-03-23T01:06:15;101271.16;;;18.26;56.49
69245;BME280;56357;52.304;4.870;2024-03-23T01:08:43;101268.84;;;18.18;56.26
69245;BME280;56357;52.304;4.870;2024-03-23T01:11:10;101263.81;;;18.20;56.13
69245;BME280;56357;52.304;4.870;2024-03-23T01:13:37;101256.53;;;18.19;56.35
69245;BME280;56357;52.304;4.870;2024-03-23T01:16:03;101259.00;;;18.15;56.03
69245;BME280;56357;52.304;4.870;2024-03-23T01:18:30;101248.34;;;18.12;56.50
69245;BME280;56357;52.304;4.870;2024-03-23T01:20:56;101247.81;;;18.15;56.19
69245;BME280;56357;52.304;4.870;2024-03-23T01:23:23;101247.78;;;18.10;56.27
69245;BME280;56357;52.304;4.870;2024-03-23T01:25:53;101241.59;;;18.08;56.48
69245;BME280;56357;52.304;4.870;2024-03-23T01:28:22;101246.69;;;18.11;56.55
69245;BME280;56357;52.304;4.870;2024-03-23T01:30:49;101238.22;;;18.06;56.35
69245;BME280;56357;52.304;4.870;2024-03-23T01:33:15;101245.22;;;18.04;56.14
69245;BME280;56357;52.304;4.870;2024-03-23T01:35:41;101253.59;;;17.99;56.30
69245;BME280;56357;52.304;4.870;2024-03-23T01:38:08;101248.84;;;17.99;56.47
69245;BME280;56357;52.304;4.870;2024-03-23T01:40:34;101244.41;;;18.03;56.38
69245;BME280;56357;52.304;4.870;2024-03-23T01:43:05;101248.56;;;17.96;56.34
69245;BME280;56357;52.304;4.870;2024-03-23T01:45:33;101246.06;;;18.04;56.02
69245;BME280;56357;52.304;4.870;2024-03-23T01:48:00;101251.38;;;18.01;56.07
69245;BME280;56357;52.304;4.870;2024-03-23T01:50:27;101249.94;;;17.93;56.42
69245;BME280;56357;52.304;4.870;2024-03-23T01:52:54;101246.63;;;18.01;55.82
69245;BME280;56357;52.304;4.870;2024-03-23T01:55:20;101242.63;;;17.92;56.35
69245;BME280;56357;52.304;4.870;2024-03-23T01:57:47;101237.59;;;17.94;56.15
69245;BME280;56357;52.304;4.870;2024-03-23T02:00:13;101235.91;;;17.88;56.13
69245;BME280;56357;52.304;4.870;2024-03-23T02:02:46;101240.91;;;17.86;56.32
69245;BME280;56357;52.304;4.870;2024-03-23T02:05:12;101238.63;;;17.83;56.19
69245;BME280;56357;52.304;4.870;2024-03-23T02:07:40;101235.81;;;17.78;56.49
69245;BME280;56357;52.304;4.870;2024-03-23T02:10:07;101234.69;;;17.79;56.72
69245;BME280;56357;52.304;4.870;2024-03-23T02:12:35;101229.97;;;17.85;56.36
69245;BME280;56357;52.304;4.870;2024-03-23T02:15:00;101229.72;;;17.86;56.28
69245;BME280;56357;52.304;4.870;2024-03-23T02:17:29;101224.03;;;17.76;56.32
69245;BME280;56357;52.304;4.870;2024-03-23T02:19:55;101232.16;;;17.78;56.23
69245;BME280;56357;52.304;4.870;2024-03-23T02:22:22;101228.78;;;17.76;56.38
69245;BME280;56357;52.304;4.870;2024-03-23T02:24:48;101225.97;;;17.76;56.10
69245;BME280;56357;52.304;4.870;2024-03-23T02:27:15;101226.56;;;17.78;56.36
69245;BME280;56357;52.304;4.870;2024-03-23T02:29:41;101222.09;;;17.77;56.24
69245;BME280;56357;52.304;4.870;2024-03-23T02:32:08;101216.44;;;17.72;55.87
69245;BME280;56357;52.304;4.870;2024-03-23T02:34:35;101209.97;;;17.71;56.14
69245;BME280;56357;52.304;4.870;2024-03-23T02:37:02;101209.44;;;17.69;56.13
69245;BME280;56357;52.304;4.870;2024-03-23T02:39:28;101195.41;;;17.69;56.29
69245;BME280;56357;52.304;4.870;2024-03-23T02:41:55;101200.69;;;17.66;56.00
69245;BME280;56357;52.304;4.870;2024-03-23T02:44:20;101192.56;;;17.64;56.16
69245;BME280;56357;52.304;4.870;2024-03-23T02:46:48;101188.41;;;17.67;56.03
69245;BME280;56357;52.304;4.870;2024-03-23T02:49:14;101192.56;;;17.64;55.99
69245;BME280;56357;52.304;4.870;2024-03-23T02:51:41;101190.34;;;17.66;55.66
69245;BME280;56357;52.304;4.870;2024-03-23T02:54:07;101193.16;;;17.66;56.25
69245;BME280;56357;52.304;4.870;2024-03-23T02:56:34;101196.25;;;17.70;55.99
69245;BME280;56357;52.304;4.870;2024-03-23T02:59:00;101185.59;;;17.67;56.18
69245;BME280;56357;52.304;4.870;2024-03-23T03:01:26;101188.88;;;17.54;56.25
69245;BME280;56357;52.304;4.870;2024-03-23T03:03:52;101181.63;;;17.63;56.00
69245;BME280;56357;52.304;4.870;2024-03-23T03:06:25;101181.34;;;17.59;56.34
69245;BME280;56357;52.304;4.870;2024-03-23T03:08:51;101191.13;;;17.57;56.25
69245;BME280;56357;52.304;4.870;2024-03-23T03:11:19;101187.91;;;17.43;55.99
69245;BME280;56357;52.304;4.870;2024-03-23T03:13:45;101184.66;;;17.56;55.85
69245;BME280;56357;52.304;4.870;2024-03-23T03:16:12;101180.13;;;17.50;56.41
69245;BME280;56357;52.304;4.870;2024-03-23T03:18:38;101177.13;;;17.57;55.90
69245;BME280;56357;52.304;4.870;2024-03-23T03:21:05;101169.28;;;17.59;56.10
69245;BME280;56357;52.304;4.870;2024-03-23T03:23:37;101169.59;;;17.62;55.83
69245;BME280;56357;52.304;4.870;2024-03-23T03:26:07;101169.88;;;17.61;55.84
69245;BME280;56357;52.304;4.870;2024-03-23T03:28:33;101165.06;;;17.56;55.48
69245;BME280;56357;52.304;4.870;2024-03-23T03:31:00;101179.03;;;17.51;56.20
69245;BME280;56357;52.304;4.870;2024-03-23T03:33:27;101174.28;;;17.52;55.50
69245;BME280;56357;52.304;4.870;2024-03-23T03:35:54;101166.75;;;17.57;56.03
69245;BME280;56357;52.304;4.870;2024-03-23T03:38:20;101168.13;;;17.55;55.53
69245;BME280;56357;52.304;4.870;2024-03-23T03:40:48;101163.91;;;17.52;56.10
69245;BME280;56357;52.304;4.870;2024-03-23T03:43:14;101161.09;;;17.52;55.64
69245;BME280;56357;52.304;4.870;2024-03-23T03:45:42;101158.25;;;17.47;55.92
69245;BME280;56357;52.304;4.870;2024-03-23T03:48:08;101154.94;;;17.50;56.14
69245;BME280;56357;52.304;4.870;2024-03-23T03:50:36;101151.03;;;17.51;56.11
69245;BME280;56357;52.304;4.870;2024-03-23T03:53:02;101152.19;;;17.55;55.75
69245;BME280;56357;52.304;4.870;2024-03-23T03:55:30;101145.38;;;17.46;56.02
69245;BME280;56357;52.304;4.870;2024-03-23T03:57:56;101148.22;;;17.51;56.42
69245;BME280;56357;52.304;4.870;2024-03-23T04:00:24;101144.34;;;17.57;56.11
69245;BME280;56357;52.304;4.870;2024-03-23T04:02:51;101135.59;;;17.49;56.20
69245;BME280;56357;52.304;4.870;2024-03-23T04:05:18;101139.84;;;17.51;56.03
69245;BME280;56357;52.304;4.870;2024-03-23T04:07:45;101146.00;;;17.48;56.10
69245;BME280;56357;52.304;4.870;2024-03-23T04:10:13;101147.44;;;17.56;55.65
69245;BME280;56357;52.304;4.870;2024-03-23T04:12:41;101138.84;;;17.72;56.04
69245;BME280;56357;52.304;4.870;2024-03-23T04:15:08;101143.22;;;17.53;56.04
69245;BME280;56357;52.304;4.870;2024-03-23T04:17:34;101142.66;;;17.56;56.59
69245;BME280;56357;52.304;4.870;2024-03-23T04:20:03;101143.22;;;17.58;56.02
69245;BME280;56357;52.304;4.870;2024-03-23T04:22:29;101136.22;;;17.56;56.27
69245;BME280;56357;52.304;4.870;2024-03-23T04:24:57;101136.75;;;17.53;56.12
69245;BME280;56357;52.304;4.870;2024-03-23T04:27:24;101141.84;;;17.61;55.76
69245;BME280;56357;52.304;4.870;2024-03-23T04:29:53;101140.44;;;17.58;56.14
69245;BME280;56357;52.304;4.870;2024-03-23T04:32:19;101130.94;;;17.64;55.81
69245;BME280;56357;52.304;4.870;2024-03-23T04:34:48;101128.06;;;17.54;56.42
69245;BME280;56357;52.304;4.870;2024-03-23T04:37:15;101130.06;;;17.59;56.17
69245;BME280;56357;52.304;4.870;2024-03-23T04:39:44;101122.47;;;17.54;55.84
69245;BME280;56357;52.304;4.870;2024-03-23T04:42:15;101126.13;;;17.55;56.20
69245;BME280;56357;52.304;4.870;2024-03-23T04:44:44;101123.19;;;17.76;55.59
69245;BME280;56357;52.304;4.870;2024-03-23T04:47:14;101124.19;;;17.60;56.16
69245;BME280;56357;52.304;4.870;2024-03-23T04:49:44;101122.03;;;17.67;55.84
69245;BME280;56357;52.304;4.870;2024-03-23T04:52:13;101117.84;;;17.75;55.45
69245;BME280;56357;52.304;4.870;2024-03-23T04:54:42;101124.16;;;18.07;55.07
69245;BME280;56357;52.304;4.870;2024-03-23T04:57:09;101126.78;;;17.72;55.39
69245;BME280;56357;52.304;4.870;2024-03-23T04:59:37;101126.56;;;17.83;55.68
69245;BME280;56357;52.304;4.870;2024-03-23T05:02:04;101115.72;;;17.97;54.76
69245;BME280;56357;52.304;4.870;2024-03-23T05:04:32;101119.16;;;17.62;55.40
69245;BME280;56357;52.304;4.870;2024-03-23T05:06:59;101120.63;;;17.70;55.53
69245;BME280;56357;52.304;4.870;2024-03-23T05:09:25;101129.63;;;17.77;55.63
69245;BME280;56357;52.304;4.870;2024-03-23T05:11:55;101123.13;;;17.71;55.55
69245;BME280;56357;52.304;4.870;2024-03-23T05:14:22;101130.72;;;17.76;55.00
69245;BME280;56357;52.304;4.870;2024-03-23T05:16:49;101129.59;;;17.72;55.78
69245;BME280;56357;52.304;4.870;2024-03-23T05:19:15;101128.28;;;17.84;55.90
69245;BME280;56357;52.304;4.870;2024-03-23T05:21:42;101125.19;;;17.86;55.33
69245;BME280;56357;52.304;4.870;2024-03-23T05:24:08;101122.41;;;17.91;54.77
69245;BME280;56357;52.304;4.870;2024-03-23T05:26:35;101124.47;;;18.10;55.27
69245;BME280;56357;52.304;4.870;2024-03-23T05:29:02;101122.16;;;17.97;55.33
69245;BME280;56357;52.304;4.870;2024-03-23T05:31:30;101123.84;;;17.98;55.41
69245;BME280;56357;52.304;4.870;2024-03-23T05:33:56;101117.75;;;18.16;55.29
69245;BME280;56357;52.304;4.870;2024-03-23T05:36:23;101117.94;;;17.90;55.21
69245;BME280;56357;52.304;4.870;2024-03-23T05:38:50;101124.84;;;17.72;54.84
69245;BME280;56357;52.304;4.870;2024-03-23T05:41:17;101121.81;;;17.84;55.48
69245;BME280;56357;52.304;4.870;2024-03-23T05:43:43;101130.44;;;17.72;56.16
69245;BME280;56357;52.304;4.870;2024-03-23T05:46:10;101122.13;;;17.92;56.18
69245;BME280;56357;52.304;4.870;2024-03-23T05:48:36;101119.38;;;18.02;55.59
69245;BME280;56357;52.304;4.870;2024-03-23T05:51:03;101112.59;;;17.88;55.63
69245;BME280;56357;52.304;4.870;2024-03-23T05:53:29;101112.94;;;18.02;56.09
69245;BME280;56357;52.304;4.870;2024-03-23T05:56:03;101116.28;;;17.99;56.13
69245;BME280;56357;52.304;4.870;2024-03-23T05:58:29;101108.50;;;18.11;55.53
69245;BME280;56357;52.304;4.870;2024-03-23T06:01:02;101114.03;;;17.96;55.58
69245;BME280;56357;52.304;4.870;2024-03-23T06:03:28;101109.00;;;18.03;55.88
69245;BME280;56357;52.304;4.870;2024-03-23T06:05:55;101113.19;;;18.00;55.57
69245;BME280;56357;52.304;4.870;2024-03-23T06:08:22;101109.56;;;18.00;55.56
69245;BME280;56357;52.304;4.870;2024-03-23T06:10:49;101107.34;;;18.02;55.82
69245;BME280;56357;52.304;4.870;2024-03-23T06:13:16;101117.44;;;18.08;56.02
69245;BME280;56357;52.304;4.870;2024-03-23T06:15:43;101114.06;;;18.06;55.93
69245;BME280;56357;52.304;4.870;2024-03-23T06:18:10;101124.50;;;18.25;55.68
69245;BME280;56357;52.304;4.870;2024-03-23T06:20:37;101113.25;;;18.10;56.14
69245;BME280;56357;52.304;4.870;2024-03-23T06:23:03;101112.44;;;18.15;55.58
69245;BME280;56357;52.304;4.870;2024-03-23T06:25:30;101106.56;;;18.21;54.98
69245;BME280;56357;52.304;4.870;2024-03-23T06:27:57;101099.00;;;18.17;55.27
69245;BME280;56357;52.304;4.870;2024-03-23T06:30:24;101109.88;;;18.13;55.31
69245;BME280;56357;52.304;4.870;2024-03-23T06:32:50;101110.03;;;18.44;54.78
69245;BME280;56357;52.304;4.870;2024-03-23T06:35:18;101117.19;;;18.14;55.15
69245;BME280;56357;52.304;4.870;2024-03-23T06:37:44;101113.25;;;18.05;55.22
69245;BME280;56357;52.304;4.870;2024-03-23T06:40:11;101107.22;;;18.49;54.88
69245;BME280;56357;52.304;4.870;2024-03-23T06:42:37;101100.97;;;18.26;54.99
69245;BME280;56357;52.304;4.870;2024-03-23T06:45:04;101095.22;;;18.63;55.08
69245;BME280;56357;52.304;4.870;2024-03-23T06:47:31;101103.09;;;18.86;53.88
69245;BME280;56357;52.304;4.870;2024-03-23T06:50:02;101105.28;;;18.59;54.47
69245;BME280;56357;52.304;4.870;2024-03-23T06:52:28;101105.00;;;18.81;54.62
69245;BME280;56357;52.304;4.870;2024-03-23T06:54:55;101103.91;;;18.82;54.83
69245;BME280;56357;52.304;4.870;2024-03-23T06:57:21;101098.56;;;18.90;54.72
69245;BME280;56357;52.304;4.870;2024-03-23T06:59:48;101114.84;;;18.88;55.19
69245;BME280;56357;52.304;4.870;2024-03-23T07:02:15;101106.72;;;19.02;55.00
69245;BME280;56357;52.304;4.870;2024-03-23T07:04:42;101111.75;;;18.80;56.06
69245;BME280;56357;52.304;4.870;2024-03-23T07:07:08;101115.41;;;19.00;55.94
69245;BME280;56357;52.304;4.870;2024-03-23T07:09:35;101114.28;;;19.06;56.05
69245;BME280;56357;52.304;4.870;2024-03-23T07:12:03;101110.66;;;19.41;54.63
69245;BME280;56357;52.304;4.870;2024-03-23T07:14:30;101101.66;;;19.39;56.27
69245;BME280;56357;52.304;4.870;2024-03-23T07:16:56;101105.00;;;19.61;55.81
69245;BME280;56357;52.304;4.870;2024-03-23T07:19:23;101105.81;;;19.72;55.41
69245;BME280;56357;52.304;4.870;2024-03-23T07:21:50;101105.59;;;19.43;55.46
69245;BME280;56357;52.304;4.870;2024-03-23T07:24:17;101109.81;;;18.95;56.16
69245;BME280;56357;52.304;4.870;2024-03-23T07:26:43;101111.22;;;19.38;55.24
69245;BME280;56357;52.304;4.870;2024-03-23T07:29:10;101117.09;;;19.37;54.43
69245;BME280;56357;52.304;4.870;2024-03-23T07:31:36;101108.69;;;19.27;55.15
69245;BME280;56357;52.304;4.870;2024-03-23T07:34:04;101104.44;;;19.54;54.93
69245;BME280;56357;52.304;4.870;2024-03-23T07:36:31;101101.59;;;19.69;53.54
69245;BME280;56357;52.304;4.870;2024-03-23T07:38:58;101109.53;;;19.22;54.05
69245;BME280;56357;52.304;4.870;2024-03-23T07:41:24;101101.91;;;19.63;54.24
69245;BME280;56357;52.304;4.870;2024-03-23T07:43:53;101104.50;;;19.34;54.91
69245;BME280;56357;52.304;4.870;2024-03-23T07:46:20;101113.16;;;18.92;54.63
69245;BME280;56357;52.304;4.870;2024-03-23T07:48:47;101112.06;;;18.78;55.04
69245;BME280;56357;52.304;4.870;2024-03-23T07:51:22;101107.53;;;18.92;55.23
69245;BME280;56357;52.304;4.870;2024-03-23T07:53:50;101099.44;;;19.36;54.29
69245;BME280;56357;52.304;4.870;2024-03-23T07:56:18;101098.00;;;19.24;53.94
69245;BME280;56357;52.304;4.870;2024-03-23T07:58:45;101101.69;;;19.19;53.79
69245;BME280;56357;52.304;4.870;2024-03-23T08:01:13;101101.38;;;19.00;54.76
69245;BME280;56357;52.304;4.870;2024-03-23T08:03:45;101100.53;;;19.20;54.73
69245;BME280;56357;52.304;4.870;2024-03-23T08:06:18;101103.06;;;19.16;54.50
69245;BME280;56357;52.304;4.870;2024-03-23T08:08:52;101098.84;;;19.44;53.66
69245;BME280;56357;52.304;4.870;2024-03-23T08:11:29;101099.44;;;19.36;53.15
69245;BME280;56357;52.304;4.870;2024-03-23T08:13:59;101094.94;;;19.40;53.32
69245;BME280;56357;52.304;4.870;2024-03-23T08:16:27;101097.72;;;19.30;53.77
69245;BME280;56357;52.304;4.870;2024-03-23T08:18:56;101108.41;;;19.33;53.12
69245;BME280;56357;52.304;4.870;2024-03-23T08:21:23;101101.38;;;19.26;53.21
69245;BME280;56357;52.304;4.870;2024-03-23T08:23:51;101101.94;;;19.23;53.60
69245;BME280;56357;52.304;4.870;2024-03-23T08:26:17;101108.09;;;19.09;53.78
69245;BME280;56357;52.304;4.870;2024-03-23T08:28:45;101099.13;;;19.23;54.03
69245;BME280;56357;52.304;4.870;2024-03-23T08:31:13;101104.75;;;19.23;53.41
69245;BME280;56357;52.304;4.870;2024-03-23T08:33:41;101093.50;;;19.53;52.96
69245;BME280;56357;52.304;4.870;2024-03-23T08:36:09;101092.03;;;19.70;51.96
69245;BME280;56357;52.304;4.870;2024-03-23T08:38:38;101100.34;;;20.00;51.97
69245;BME280;56357;52.304;4.870;2024-03-23T08:41:07;101100.53;;;20.29;51.56
69245;BME280;56357;52.304;4.870;2024-03-23T08:43:39;101091.03;;;20.20;50.80
69245;BME280;56357;52.304;4.870;2024-03-23T08:46:10;101100.72;;;20.48;51.27
69245;BME280;56357;52.304;4.870;2024-03-23T08:48:39;101094.66;;;20.16;51.58
69245;BME280;56357;52.304;4.870;2024-03-23T08:51:07;101092.13;;;20.24;51.92
69245;BME280;56357;52.304;4.870;2024-03-23T08:53:35;101090.25;;;19.99;51.87
69245;BME280;56357;52.304;4.870;2024-03-23T08:56:03;101096.81;;;19.70;51.97
69245;BME280;56357;52.304;4.870;2024-03-23T08:58:31;101098.81;;;19.64;52.95
69245;BME280;56357;52.304;4.870;2024-03-23T09:01:03;101086.91;;;19.87;52.33
69245;BME280;56357;52.304;4.870;2024-03-23T09:03:30;101086.22;;;20.26;52.10
69245;BME280;56357;52.304;4.870;2024-03-23T09:05:56;101089.63;;;20.13;51.95
69245;BME280;56357;52.304;4.870;2024-03-23T09:08:24;101096.78;;;19.75;52.79
69245;BME280;56357;52.304;4.870;2024-03-23T09:10:51;101090.28;;;19.89;52.47
69245;BME280;56357;52.304;4.870;2024-03-23T09:13:18;101090.25;;;19.94;51.61
69245;BME280;56357;52.304;4.870;2024-03-23T09:15:51;101101.09;;;20.31;51.74
69245;BME280;56357;52.304;4.870;2024-03-23T09:18:22;101093.69;;;20.45;50.68
69245;BME280;56357;52.304;4.870;2024-03-23T09:20:48;101087.22;;;19.86;49.73
69245;BME280;56357;52.304;4.870;2024-03-23T09:23:15;101103.31;;;19.50;49.05
69245;BME280;56357;52.304;4.870;2024-03-23T09:25:41;101103.63;;;19.44;48.17
69245;BME280;56357;52.304;4.870;2024-03-23T09:28:08;101095.72;;;19.56;46.82
69245;BME280;56357;52.304;4.870;2024-03-23T09:30:35;101103.84;;;19.67;48.33
69245;BME280;56357;52.304;4.870;2024-03-23T09:33:07;101102.63;;;20.03;47.97
69245;BME280;56357;52.304;4.870;2024-03-23T09:35:39;101091.03;;;20.20;45.73
69245;BME280;56357;52.304;4.870;2024-03-23T09:38:07;101094.75;;;19.95;45.24
69245;BME280;56357;52.304;4.870;2024-03-23T09:40:35;101081.81;;;19.99;44.89
69245;BME280;56357;52.304;4.870;2024-03-23T09:43:02;101100.44;;;19.75;45.94
69245;BME280;56357;52.304;4.870;2024-03-23T09:45:29;101090.56;;;19.93;46.06
69245;BME280;56357;52.304;4.870;2024-03-23T09:47:56;101088.03;;;19.86;46.48
69245;BME280;56357;52.304;4.870;2024-03-23T09:50:22;101085.44;;;20.00;46.81
69245;BME280;56357;52.304;4.870;2024-03-23T09:52:50;101090.19;;;20.09;46.94
69245;BME280;56357;52.304;4.870;2024-03-23T09:55:16;101091.88;;;20.11;46.47
69245;BME280;56357;52.304;4.870;2024-03-23T09:57:43;101090.25;;;19.99;47.04
69245;BME280;56357;52.304;4.870;2024-03-23T10:00:10;101100.16;;;19.82;47.70
69245;BME280;56357;52.304;4.870;2024-03-23T10:02:38;101080.19;;;19.83;47.90
69245;BME280;56357;52.304;4.870;2024-03-23T10:05:04;101087.50;;;19.79;48.30
69245;BME280;56357;52.304;4.870;2024-03-23T10:07:33;101089.75;;;19.82;48.43
69245;BME280;56357;52.304;4.870;2024-03-23T10:10:10;101079.03;;;19.89;47.80
69245;BME280;56357;52.304;4.870;2024-03-23T10:12:44;101078.56;;;19.72;47.71
69245;BME280;56357;52.304;4.870;2024-03-23T10:15:24;101083.78;;;19.99;47.87
69245;BME280;56357;52.304;4.870;2024-03-23T10:17:52;101098.16;;;19.87;48.46
69245;BME280;56357;52.304;4.870;2024-03-23T10:20:22;101089.50;;;19.74;48.48
69245;BME280;56357;52.304;4.870;2024-03-23T10:22:50;101087.72;;;19.98;48.45
69245;BME280;56357;52.304;4.870;2024-03-23T10:25:17;101080.03;;;20.24;47.31
69245;BME280;56357;52.304;4.870;2024-03-23T10:27:58;101080.09;;;20.08;47.48
69245;BME280;56357;52.304;4.870;2024-03-23T10:30:25;101070.94;;;20.37;48.06
69245;BME280;56357;52.304;4.870;2024-03-23T10:33:11;101085.41;;;20.10;48.95
69245;BME280;56357;52.304;4.870;2024-03-23T10:35:38;101082.03;;;20.18;48.68
69245;BME280;56357;52.304;4.870;2024-03-23T10:38:06;101100.63;;;20.04;48.91
69245;BME280;56357;52.304;4.870;2024-03-23T10:40:34;101093.56;;;20.12;47.95
69245;BME280;56357;52.304;4.870;2024-03-23T10:43:04;101082.41;;;19.91;48.67
69245;BME280;56357;52.304;4.870;2024-03-23T10:45:32;101091.91;;;20.00;49.15
69245;BME280;56357;52.304;4.870;2024-03-23T10:47:59;101084.41;;;19.81;49.07
69245;BME280;56357;52.304;4.870;2024-03-23T10:50:25;101087.16;;;19.96;49.33
69245;BME280;56357;52.304;4.870;2024-03-23T10:52:53;101082.13;;;19.93;49.58
69245;BME280;56357;52.304;4.870;2024-03-23T10:55:22;101072.53;;;19.99;49.55
69245;BME280;56357;52.304;4.870;2024-03-23T10:57:53;101088.88;;;19.92;49.96
69245;BME280;56357;52.304;4.870;2024-03-23T11:00:19;101078.75;;;19.91;49.81
69245;BME280;56357;52.304;4.870;2024-03-23T11:02:48;101074.84;;;19.87;50.13
69245;BME280;56357;52.304;4.870;2024-03-23T11:05:32;101075.66;;;19.97;50.07
69245;BME280;56357;52.304;4.870;2024-03-23T11:08:00;101075.28;;;20.14;49.48
69245;BME280;56357;52.304;4.870;2024-03-23T11:10:29;101067.84;;;19.79;48.27
69245;BME280;56357;52.304;4.870;2024-03-23T11:12:56;101073.34;;;20.04;49.55
69245;BME280;56357;52.304;4.870;2024-03-23T11:15:22;101075.66;;;19.97;49.53
69245;BME280;56357;52.304;4.870;2024-03-23T11:18:06;101066.00;;;20.19;49.65
69245;BME280;56357;52.304;4.870;2024-03-23T11:20:34;101066.28;;;20.12;49.89
69245;BME280;56357;52.304;4.870;2024-03-23T11:23:01;101075.09;;;19.90;51.01
69245;BME280;56357;52.304;4.870;2024-03-23T11:25:28;101070.66;;;19.79;51.13
69245;BME280;56357;52.304;4.870;2024-03-23T11:27:57;101074.50;;;19.98;50.21
69245;BME280;56357;52.304;4.870;2024-03-23T11:30:24;101066.94;;;19.94;51.26
69245;BME280;56357;52.304;4.870;2024-03-23T11:32:54;101073.97;;;19.86;50.38
69245;BME280;56357;52.304;4.870;2024-03-23T11:35:30;101061.09;;;19.75;51.34
69245;BME280;56357;52.304;4.870;2024-03-23T11:38:05;101066.44;;;19.82;51.21
69245;BME280;56357;52.304;4.870;2024-03-23T11:40:38;101062.81;;;19.71;51.26
69245;BME280;56357;52.304;4.870;2024-03-23T11:43:12;101061.38;;;19.84;51.21
69245;BME280;56357;52.304;4.870;2024-03-23T11:45:45;101061.41;;;19.74;51.05
69245;BME280;56357;52.304;4.870;2024-03-23T11:48:15;101068.44;;;19.76;50.89
69245;BME280;56357;52.304;4.870;2024-03-23T11:50:47;101064.75;;;19.76;50.40
69245;BME280;56357;52.304;4.870;2024-03-23T11:53:25;101057.78;;;19.58;51.17
69245;BME280;56357;52.304;4.870;2024-03-23T11:56:00;101065.06;;;19.69;51.29
69245;BME280;56357;52.304;4.870;2024-03-23T11:58:28;101064.50;;;19.67;50.47
69245;BME280;56357;52.304;4.870;2024-03-23T12:01:00;101049.88;;;19.75;51.00
69245;BME280;56357;52.304;4.870;2024-03-23T12:03:30;101054.91;;;19.83;49.74
69245;BME280;56357;52.304;4.870;2024-03-23T12:06:00;101060.78;;;19.92;50.62
69245;BME280;56357;52.304;4.870;2024-03-23T12:08:31;101081.41;;;19.57;51.25
69245;BME280;56357;52.304;4.870;2024-03-23T12:11:14;101068.19;;;19.63;51.59
69245;BME280;56357;52.304;4.870;2024-03-23T12:13:45;101058.84;;;19.77;51.51
69245;BME280;56357;52.304;4.870;2024-03-23T12:16:20;101073.44;;;19.89;51.63
69245;BME280;56357;52.304;4.870;2024-03-23T12:18:48;101070.44;;;19.61;51.60
69245;BME280;56357;52.304;4.870;2024-03-23T12:21:15;101074.06;;;19.66;51.70
69245;BME280;56357;52.304;4.870;2024-03-23T12:23:43;101069.38;;;19.42;52.09
69245;BME280;56357;52.304;4.870;2024-03-23T12:26:10;101054.44;;;19.61;51.92
69245;BME280;56357;52.304;4.870;2024-03-23T12:28:38;101056.91;;;19.73;51.34
69245;BME280;56357;52.304;4.870;2024-03-23T12:31:04;101045.31;;;19.84;51.42
69245;BME280;56357;52.304;4.870;2024-03-23T12:33:31;101058.75;;;20.02;50.41
69245;BME280;56357;52.304;4.870;2024-03-23T12:35:57;101047.50;;;20.02;50.77
69245;BME280;56357;52.304;4.870;2024-03-23T12:38:24;101027.59;;;19.89;51.13
69245;BME280;56357;52.304;4.870;2024-03-23T12:40:50;101033.25;;;19.79;50.94
69245;BME280;56357;52.304;4.870;2024-03-23T12:43:17;101037.41;;;19.96;50.73
69245;BME280;56357;52.304;4.870;2024-03-23T12:45:47;101044.16;;;19.95;50.85
69245;BME280;56357;52.304;4.870;2024-03-23T12:48:14;101038.81;;;19.99;51.08
69245;BME280;56357;52.304;4.870;2024-03-23T12:50:40;101031.84;;;19.81;51.29
69245;BME280;56357;52.304;4.870;2024-03-23T12:53:07;101036.69;;;19.71;51.15
69245;BME280;56357;52.304;4.870;2024-03-23T12:55:34;101038.53;;;19.95;51.00
69245;BME280;56357;52.304;4.870;2024-03-23T12:58:01;101039.69;;;19.84;50.96
69245;BME280;56357;52.304;4.870;2024-03-23T13:00:28;101046.69;;;19.97;51.09
69245;BME280;56357;52.304;4.870;2024-03-23T13:02:54;101050.47;;;19.62;52.12
69245;BME280;56357;52.304;4.870;2024-03-23T13:05:20;101052.50;;;19.52;51.33
69245;BME280;56357;52.304;4.870;2024-03-23T13:07:47;101046.63;;;19.33;52.18
69245;BME280;56357;52.304;4.870;2024-03-23T13:10:13;101020.47;;;19.48;52.01
69245;BME280;56357;52.304;4.870;2024-03-23T13:12:41;101020.03;;;19.89;51.56
69245;BME280;56357;52.304;4.870;2024-03-23T13:15:08;101019.31;;;20.23;50.83
69245;BME280;56357;52.304;4.870;2024-03-23T13:17:35;101014.81;;;20.12;51.41
69245;BME280;56357;52.304;4.870;2024-03-23T13:20:01;101008.88;;;20.23;51.19
69245;BME280;56357;52.304;4.870;2024-03-23T13:22:29;101002.59;;;19.87;52.00
69245;BME280;56357;52.304;4.870;2024-03-23T13:24:55;100993.13;;;19.68;52.09
69245;BME280;56357;52.304;4.870;2024-03-23T13:27:22;100991.19;;;19.69;51.97
69245;BME280;56357;52.304;4.870;2024-03-23T13:29:49;100986.44;;;19.59;51.99
69245;BME280;56357;52.304;4.870;2024-03-23T13:32:16;100995.69;;;19.60;52.16
69245;BME280;56357;52.304;4.870;2024-03-23T13:34:42;100998.88;;;19.28;53.45
69245;BME280;56357;52.304;4.870;2024-03-23T13:37:09;100999.13;;;19.52;53.12
69245;BME280;56357;52.304;4.870;2024-03-23T13:39:35;100990.47;;;19.33;52.82
69245;BME280;56357;52.304;4.870;2024-03-23T13:42:02;101012.06;;;19.33;53.46
69245;BME280;56357;52.304;4.870;2024-03-23T13:44:30;100987.25;;;19.65;53.00
69245;BME280;56357;52.304;4.870;2024-03-23T13:46:57;100991.03;;;19.20;53.39